createdAt,value
2023-04-08T00:01:23.949Z,100635.48
2023-04-08T00:03:54.102Z,100634.21
2023-04-08T00:06:28.904Z,100633.00
2023-04-08T00:09:05.139Z,100626.60
2023-04-08T00:11:34.063Z,100627.30
2023-04-08T00:14:09.719Z,100632.31
2023-04-08T00:16:40.642Z,100631.45
2023-04-08T00:19:09.481Z,100630.16
2023-04-08T00:21:38.397Z,100634.35
2023-04-08T00:24:09.104Z,100632.30
2023-04-08T00:26:38.299Z,100633.70
2023-04-08T00:29:19.301Z,100633.89
2023-04-08T00:31:49.949Z,100628.70
2023-04-08T00:34:23.024Z,100627.39
2023-04-08T00:36:53.003Z,100622.29
2023-04-08T00:39:22.053Z,100621.29
2023-04-08T00:41:51.796Z,100626.66
2023-04-08T00:44:20.909Z,100624.58
2023-04-08T00:46:51.103Z,100622.74
2023-04-08T00:49:21.324Z,100619.41
2023-04-08T00:51:52.565Z,100615.20
2023-04-08T00:57:51.618Z,100607.78
2023-04-08T01:00:23.651Z,100609.73
2023-04-08T01:03:04.257Z,100608.15
2023-04-08T01:05:48.783Z,100611.46
2023-04-08T01:08:17.546Z,100613.61
2023-04-08T01:10:46.165Z,100612.75
2023-04-08T01:13:15.031Z,100611.48
2023-04-08T01:15:43.739Z,100614.20
2023-04-08T01:18:13.736Z,100610.63
2023-04-08T01:20:42.669Z,100609.94
2023-04-08T01:23:13.696Z,100606.93
2023-04-08T01:25:54.722Z,100607.06
2023-04-08T01:28:24.021Z,100607.16
2023-04-08T01:30:53.086Z,100612.38
2023-04-08T01:33:22.479Z,100614.50
2023-04-08T01:35:52.198Z,100612.14
2023-04-08T01:38:22.085Z,100613.14
2023-04-08T01:40:50.448Z,100611.23
2023-04-08T01:43:18.928Z,100609.11
2023-04-08T01:45:47.814Z,100608.37
2023-04-08T01:48:16.556Z,100607.19
2023-04-08T01:50:45.209Z,100610.02
2023-04-08T01:53:15.126Z,100609.79
2023-04-08T01:55:46.232Z,100608.86
2023-04-08T01:58:18.648Z,100610.71
2023-04-08T02:00:47.476Z,100610.41
2023-04-08T02:03:18.029Z,100615.64
2023-04-08T02:05:48.414Z,100612.79
2023-04-08T02:08:16.827Z,100609.31
2023-04-08T02:10:45.235Z,100612.27
2023-04-08T02:13:13.550Z,100615.24
2023-04-08T02:15:43.097Z,100618.02
2023-04-08T02:18:17.274Z,100616.60
2023-04-08T02:21:07.193Z,100614.66
2023-04-08T02:23:42.293Z,100612.65
2023-04-08T02:26:14.741Z,100612.45
2023-04-08T02:28:43.512Z,100611.82
2023-04-08T02:31:16.337Z,100608.54
2023-04-08T02:33:47.800Z,100605.61
2023-04-08T02:36:16.250Z,100608.69
2023-04-08T02:38:50.570Z,100606.42
2023-04-08T02:41:21.666Z,100613.36
2023-04-08T02:43:50.103Z,100609.91
2023-04-08T02:46:21.167Z,100607.61
2023-04-08T02:48:50.848Z,100609.98
2023-04-08T02:51:19.332Z,100613.42
2023-04-08T02:53:47.637Z,100616.66
2023-04-08T02:56:16.426Z,100618.99
2023-04-08T02:58:44.910Z,100625.93
2023-04-08T03:01:14.445Z,100624.89
2023-04-08T03:03:46.002Z,100625.34
2023-04-08T03:06:14.588Z,100624.08
2023-04-08T03:08:43.322Z,100623.10
2023-04-08T03:11:13.028Z,100619.11
2023-04-08T03:13:41.930Z,100619.24
2023-04-08T03:16:11.020Z,100620.70
2023-04-08T03:18:40.742Z,100626.11
2023-04-08T03:21:09.450Z,100628.58
2023-04-08T03:23:37.852Z,100625.98
2023-04-08T03:26:07.144Z,100630.41
2023-04-08T03:28:35.955Z,100627.07
2023-04-08T03:31:04.894Z,100627.41
2023-04-08T03:33:33.959Z,100624.30
2023-04-08T03:36:02.337Z,100627.24
2023-04-08T03:38:31.707Z,100625.50
2023-04-08T03:41:00.384Z,100622.77
2023-04-08T03:43:29.444Z,100621.22
2023-04-08T03:45:57.876Z,100617.33
2023-04-08T03:48:26.673Z,100620.75
2023-04-08T03:50:55.261Z,100626.38
2023-04-08T03:53:24.227Z,100624.52
2023-04-08T03:55:53.347Z,100628.49
2023-04-08T03:58:21.770Z,100633.27
2023-04-08T04:00:50.752Z,100637.95
2023-04-08T04:03:20.290Z,100634.41
2023-04-08T04:05:54.040Z,100639.02
2023-04-08T04:08:23.194Z,100644.38
2023-04-08T04:10:52.254Z,100642.48
2023-04-08T04:13:22.194Z,100640.48
2023-04-08T04:15:51.239Z,100644.58
2023-04-08T04:18:19.961Z,100640.54
2023-04-08T04:20:48.318Z,100644.46
2023-04-08T04:23:16.830Z,100651.60
2023-04-08T04:25:45.542Z,100650.53
2023-04-08T04:28:16.621Z,100657.11
2023-04-08T04:30:47.683Z,100661.09
2023-04-08T04:33:16.310Z,100660.84
2023-04-08T04:35:45.741Z,100657.95
2023-04-08T04:38:14.495Z,100660.05
2023-04-08T04:40:43.084Z,100663.84
2023-04-08T04:43:12.276Z,100661.38
2023-04-08T04:45:47.546Z,100658.26
2023-04-08T04:48:16.532Z,100660.04
2023-04-08T04:50:45.444Z,100668.42
2023-04-08T04:53:19.156Z,100677.31
2023-04-08T04:55:49.147Z,100682.98
2023-04-08T04:58:18.300Z,100681.62
2023-04-08T05:00:47.139Z,100678.48
2023-04-08T05:03:16.934Z,100683.21
2023-04-08T05:05:55.375Z,100685.19
2023-04-08T05:08:25.943Z,100687.71
2023-04-08T05:10:56.887Z,100688.77
2023-04-08T05:13:25.844Z,100686.83
2023-04-08T05:15:56.444Z,100682.56
2023-04-08T05:18:25.257Z,100689.89
2023-04-08T05:20:54.072Z,100690.17
2023-04-08T05:23:22.764Z,100682.45
2023-04-08T05:25:51.674Z,100682.84
2023-04-08T05:28:21.918Z,100683.77
2023-04-08T05:30:51.773Z,100682.55
2023-04-08T05:33:20.653Z,100677.65
2023-04-08T05:35:53.423Z,100676.94
2023-04-08T05:38:22.259Z,100680.66
2023-04-08T05:40:50.944Z,100681.15
2023-04-08T05:43:19.647Z,100682.90
2023-04-08T05:45:49.271Z,100681.79
2023-04-08T05:48:18.065Z,100683.11
2023-04-08T05:50:48.714Z,100682.06
2023-04-08T05:53:17.746Z,100679.55
2023-04-08T05:55:46.495Z,100680.69
2023-04-08T05:58:14.993Z,100683.18
2023-04-08T06:00:43.588Z,100683.69
2023-04-08T06:03:20.312Z,100681.96
2023-04-08T06:05:51.637Z,100687.13
2023-04-08T06:08:21.479Z,100683.68
2023-04-08T06:10:53.562Z,100686.41
2023-04-08T06:13:26.071Z,100688.81
2023-04-08T06:15:54.830Z,100688.41
2023-04-08T06:18:30.794Z,100690.80
2023-04-08T06:21:00.002Z,100689.32
2023-04-08T06:23:28.669Z,100694.20
2023-04-08T06:25:57.645Z,100698.50
2023-04-08T06:28:26.513Z,100698.32
2023-04-08T06:30:56.122Z,100702.41
2023-04-08T06:33:24.985Z,100700.17
2023-04-08T06:36:02.192Z,100700.55
2023-04-08T06:38:32.487Z,100699.23
2023-04-08T06:41:04.675Z,100702.69
2023-04-08T06:43:33.682Z,100707.33
2023-04-08T06:46:02.183Z,100710.46
2023-04-08T06:48:32.785Z,100709.53
2023-04-08T06:51:01.955Z,100712.28
2023-04-08T06:53:31.677Z,100713.51
2023-04-08T06:56:00.737Z,100712.63
2023-04-08T06:58:31.549Z,100713.43
2023-04-08T07:01:01.256Z,100716.85
2023-04-08T07:03:31.252Z,100715.92
2023-04-08T07:06:00.507Z,100717.48
2023-04-08T07:08:29.067Z,100723.23
2023-04-08T07:11:01.247Z,100722.60
2023-04-08T07:13:29.994Z,100723.97
2023-04-08T07:15:58.588Z,100724.27
2023-04-08T07:18:27.823Z,100727.96
2023-04-08T07:20:56.685Z,100728.83
2023-04-08T07:23:28.168Z,100726.80
2023-04-08T07:25:56.985Z,100725.83
2023-04-08T07:28:26.023Z,100727.46
2023-04-08T07:30:54.813Z,100730.86
2023-04-08T07:33:24.068Z,100728.00
2023-04-08T07:35:53.364Z,100726.44
2023-04-08T07:38:21.985Z,100730.54
2023-04-08T07:40:50.952Z,100734.27
2023-04-08T07:43:19.705Z,100736.77
2023-04-08T07:45:48.750Z,100737.06
2023-04-08T07:48:17.627Z,100737.37
2023-04-08T07:51:09.016Z,100732.20
2023-04-08T07:53:37.540Z,100730.61
2023-04-08T07:56:15.140Z,100728.59
2023-04-08T07:58:44.029Z,100731.33
2023-04-08T08:01:16.603Z,100732.52
2023-04-08T08:03:48.373Z,100731.73
2023-04-08T08:06:17.531Z,100728.90
2023-04-08T08:08:47.383Z,100727.45
2023-04-08T08:11:16.112Z,100730.34
2023-04-08T08:13:44.836Z,100730.88
2023-04-08T08:16:14.357Z,100731.20
2023-04-08T08:18:43.041Z,100729.12
2023-04-08T08:21:16.236Z,100729.86
2023-04-08T08:23:45.382Z,100727.21
2023-04-08T08:26:13.958Z,100722.25
2023-04-08T08:28:46.321Z,100722.84
2023-04-08T08:31:14.794Z,100724.55
2023-04-08T08:33:43.659Z,100720.45
2023-04-08T08:36:14.939Z,100716.20
2023-04-08T08:38:43.606Z,100715.66
2023-04-08T08:41:12.203Z,100715.49
2023-04-08T08:43:42.814Z,100719.41
2023-04-08T08:46:12.432Z,100714.34
2023-04-08T08:48:41.191Z,100715.31
2023-04-08T08:51:10.212Z,100715.65
2023-04-08T08:53:45.604Z,100718.27
2023-04-08T08:56:18.769Z,100717.48
2023-04-08T08:58:48.093Z,100715.42
2023-04-08T09:01:30.420Z,100715.98
2023-04-08T09:04:09.061Z,100718.98
2023-04-08T09:06:39.869Z,100717.92
2023-04-08T09:09:12.262Z,100721.83
2023-04-08T09:11:41.666Z,100719.23
2023-04-08T09:14:18.768Z,100719.34
2023-04-08T09:16:48.047Z,100719.27
2023-04-08T09:19:17.016Z,100721.04
2023-04-08T09:21:47.936Z,100722.80
2023-04-08T09:24:29.568Z,100721.58
2023-04-08T09:26:58.336Z,100719.76
2023-04-08T09:29:30.053Z,100722.56
2023-04-08T09:32:01.445Z,100726.94
2023-04-08T09:34:32.708Z,100723.13
2023-04-08T09:37:02.253Z,100730.34
2023-04-08T09:39:32.576Z,100729.05
2023-04-08T09:42:04.090Z,100729.77
2023-04-08T09:44:32.931Z,100727.25
2023-04-08T09:47:02.429Z,100728.24
2023-04-08T09:49:38.711Z,100726.60
2023-04-08T09:52:11.673Z,100726.20
2023-04-08T09:54:40.584Z,100730.91
2023-04-08T09:57:17.058Z,100730.16
2023-04-08T09:59:51.651Z,100730.42
2023-04-08T10:02:21.810Z,100733.92
2023-04-08T10:04:50.647Z,100736.48
2023-04-08T10:07:19.651Z,100734.23
2023-04-08T10:09:48.502Z,100732.83
2023-04-08T10:12:17.351Z,100735.89
2023-04-08T10:15:04.986Z,100737.91
2023-04-08T10:17:37.201Z,100740.84
2023-04-08T10:20:06.199Z,100740.21
2023-04-08T10:22:35.092Z,100738.56
2023-04-08T10:25:15.918Z,100737.81
2023-04-08T10:27:44.944Z,100738.48
2023-04-08T10:30:29.142Z,100743.80
2023-04-08T10:33:00.237Z,100741.23
2023-04-08T10:35:30.399Z,100736.06
2023-04-08T10:37:59.383Z,100740.30
2023-04-08T10:40:28.208Z,100742.11
2023-04-08T10:42:57.032Z,100739.30
2023-04-08T10:45:30.292Z,100739.14
2023-04-08T10:48:19.640Z,100740.48
2023-04-08T10:50:57.972Z,100742.70
2023-04-08T10:53:27.717Z,100744.48
2023-04-08T10:56:15.813Z,100736.27
2023-04-08T10:58:50.146Z,100735.88
2023-04-08T11:01:19.123Z,100734.02
2023-04-08T11:03:47.967Z,100732.23
2023-04-08T11:06:16.759Z,100727.71
2023-04-08T11:08:45.970Z,100723.48
2023-04-08T11:11:15.170Z,100718.86
2023-04-08T11:13:52.622Z,100714.55
2023-04-08T11:16:23.750Z,100714.81
2023-04-08T11:18:52.466Z,100712.43
2023-04-08T11:21:26.180Z,100711.57
2023-04-08T11:23:55.224Z,100709.45
2023-04-08T11:26:23.909Z,100708.65
2023-04-08T11:28:54.506Z,100705.40
2023-04-08T11:31:24.914Z,100703.02
2023-04-08T11:33:57.137Z,100703.96
2023-04-08T11:36:27.527Z,100704.30
2023-04-08T11:38:56.222Z,100696.58
2023-04-08T11:41:36.181Z,100693.92
2023-04-08T11:44:05.830Z,100693.27
2023-04-08T11:46:35.740Z,100687.17
2023-04-08T11:49:05.570Z,100680.45
2023-04-08T11:51:55.210Z,100676.59
2023-04-08T11:54:30.478Z,100678.26
2023-04-08T11:56:59.483Z,100675.28
2023-04-08T11:59:29.937Z,100669.33
2023-04-08T12:01:59.381Z,100663.91
2023-04-08T12:04:28.185Z,100661.22
2023-04-08T12:06:58.378Z,100659.25
2023-04-08T12:09:28.699Z,100657.74
2023-04-08T12:11:58.359Z,100652.08
2023-04-08T12:14:28.431Z,100650.42
2023-04-08T12:16:57.357Z,100643.98
2023-04-08T12:19:33.886Z,100644.55
2023-04-08T12:22:03.903Z,100644.81
2023-04-08T12:24:32.768Z,100642.65
2023-04-08T12:27:02.852Z,100645.73
2023-04-08T12:29:32.794Z,100647.45
2023-04-08T12:32:02.746Z,100645.86
2023-04-08T12:34:33.118Z,100638.83
2023-04-08T12:37:02.747Z,100645.58
2023-04-08T12:39:33.707Z,100650.23
2023-04-08T12:42:03.818Z,100642.45
2023-04-08T12:44:32.517Z,100643.25
2023-04-08T12:47:01.638Z,100642.46
2023-04-08T12:49:30.980Z,100648.88
2023-04-08T12:52:05.778Z,100648.83
2023-04-08T12:54:34.542Z,100650.40
2023-04-08T12:57:03.199Z,100653.35
2023-04-08T12:59:33.822Z,100652.90
2023-04-08T13:02:03.166Z,100654.94
2023-04-08T13:04:31.889Z,100660.69
2023-04-08T13:07:01.344Z,100670.25
2023-04-08T13:09:31.015Z,100689.69
2023-04-08T13:12:00.514Z,100724.24
2023-04-08T13:14:31.880Z,100723.44
2023-04-08T13:17:00.596Z,100717.79
2023-04-08T13:19:31.665Z,100719.95
2023-04-08T13:22:01.002Z,100715.73
2023-04-08T13:24:30.116Z,100723.42
2023-04-08T13:26:58.750Z,100721.55
2023-04-08T13:29:28.738Z,100728.55
2023-04-08T13:31:57.724Z,100732.58
2023-04-08T13:34:26.506Z,100730.48
2023-04-08T13:36:55.864Z,100733.60
2023-04-08T13:39:25.206Z,100725.70
2023-04-08T13:41:54.056Z,100720.10
2023-04-08T13:44:22.925Z,100725.63
2023-04-08T13:46:51.971Z,100722.66
2023-04-08T13:49:21.050Z,100725.77
2023-04-08T13:51:50.215Z,100726.80
2023-04-08T13:54:24.296Z,100712.67
2023-04-08T13:56:52.949Z,100711.34
2023-04-08T13:59:21.642Z,100703.98
2023-04-08T14:01:54.362Z,100702.63
2023-04-08T14:04:23.519Z,100684.77
2023-04-08T14:06:53.436Z,100683.48
2023-04-08T14:09:22.028Z,100681.44
2023-04-08T14:11:51.540Z,100678.54
2023-04-08T14:14:20.194Z,100668.86
2023-04-08T14:16:51.722Z,100657.38
2023-04-08T14:19:20.652Z,100656.06
2023-04-08T14:21:49.414Z,100647.05
2023-04-08T14:24:18.436Z,100650.22
2023-04-08T14:26:46.992Z,100651.89
2023-04-08T14:29:16.381Z,100651.36
2023-04-08T14:31:44.997Z,100649.18
2023-04-08T14:34:13.675Z,100645.38
2023-04-08T14:36:43.419Z,100639.67
2023-04-08T14:39:12.630Z,100640.98
2023-04-08T14:41:41.671Z,100640.95
2023-04-08T14:44:10.417Z,100644.73
2023-04-08T14:46:40.004Z,100640.98
2023-04-08T14:49:09.088Z,100640.44
2023-04-08T14:51:38.337Z,100643.60
2023-04-08T14:54:07.953Z,100641.90
2023-04-08T14:56:37.329Z,100643.92
2023-04-08T14:59:06.394Z,100646.50
2023-04-08T15:01:36.118Z,100644.16
2023-04-08T15:04:05.285Z,100643.84
2023-04-08T15:06:34.073Z,100647.02
2023-04-08T15:09:02.774Z,100648.13
2023-04-08T15:11:31.429Z,100650.71
2023-04-08T15:14:08.790Z,100656.64
2023-04-08T15:16:38.582Z,100666.32
2023-04-08T15:19:07.337Z,100681.50
2023-04-08T15:21:36.308Z,100692.59
2023-04-08T15:24:04.930Z,100693.14
2023-04-08T15:26:33.623Z,100693.81
2023-04-08T15:29:04.521Z,100694.55
2023-04-08T15:31:33.886Z,100697.77
2023-04-08T15:34:03.811Z,100700.19
2023-04-08T15:36:32.932Z,100701.02
2023-04-08T15:39:01.890Z,100701.05
2023-04-08T15:41:32.706Z,100702.84
2023-04-08T15:44:01.433Z,100704.05
2023-04-08T15:46:30.270Z,100707.60
2023-04-08T15:49:00.886Z,100709.23
2023-04-08T15:51:30.129Z,100706.54
2023-04-08T15:53:58.988Z,100703.08
2023-04-08T15:56:29.942Z,100703.27
2023-04-08T15:59:01.211Z,100702.02
2023-04-08T16:01:30.255Z,100702.06
2023-04-08T16:04:01.269Z,100703.58
2023-04-08T16:06:30.681Z,100702.35
2023-04-08T16:08:59.466Z,100704.86
2023-04-08T16:11:36.385Z,100703.48
2023-04-08T16:14:07.242Z,100708.22
2023-04-08T16:16:38.884Z,100708.30
2023-04-08T16:19:13.175Z,100707.30
2023-04-08T16:21:42.006Z,100708.73
2023-04-08T16:24:10.825Z,100709.41
2023-04-08T16:26:39.748Z,100711.70
2023-04-08T16:29:08.912Z,100716.85
2023-04-08T16:31:37.621Z,100721.55
2023-04-08T16:34:06.328Z,100719.06
2023-04-08T16:36:34.929Z,100717.83
2023-04-08T16:39:04.323Z,100718.54
2023-04-08T16:41:33.334Z,100718.59
2023-04-08T16:44:02.218Z,100720.45
2023-04-08T16:46:31.149Z,100722.49
2023-04-08T16:48:59.968Z,100725.46
2023-04-08T16:51:29.380Z,100723.98
2023-04-08T16:53:59.203Z,100726.80
2023-04-08T16:56:30.037Z,100731.05
2023-04-08T16:58:58.734Z,100732.32
2023-04-08T17:01:29.848Z,100737.57
2023-04-08T17:03:58.810Z,100739.55
2023-04-08T17:06:27.816Z,100744.11
2023-04-08T17:08:57.777Z,100747.73
2023-04-08T17:11:26.614Z,100749.80
2023-04-08T17:13:55.338Z,100754.59
2023-04-08T17:16:27.440Z,100753.77
2023-04-08T17:18:56.977Z,100761.93
2023-04-08T17:21:27.191Z,100762.00
2023-04-08T17:23:57.021Z,100766.98
2023-04-08T17:26:26.609Z,100772.52
2023-04-08T17:28:55.216Z,100775.36
2023-04-08T17:31:24.170Z,100775.65
2023-04-08T17:33:53.079Z,100776.28
2023-04-08T17:36:21.711Z,100779.77
2023-04-08T17:38:53.362Z,100782.33
2023-04-08T17:41:37.965Z,100782.94
2023-04-08T17:44:12.047Z,100789.80
2023-04-08T17:46:41.897Z,100790.47
2023-04-08T17:49:14.988Z,100796.09
2023-04-08T17:51:44.359Z,100797.16
2023-04-08T17:54:13.240Z,100795.36
2023-04-08T17:56:49.048Z,100799.27
2023-04-08T17:59:18.208Z,100803.09
2023-04-08T18:01:48.269Z,100802.42
2023-04-08T18:04:17.983Z,100800.63
2023-04-08T18:06:46.834Z,100802.16
2023-04-08T18:09:21.382Z,100808.70
2023-04-08T18:11:50.421Z,100810.89
2023-04-08T18:14:19.056Z,100810.11
2023-04-08T18:16:55.045Z,100811.66
2023-04-08T18:19:26.457Z,100813.59
2023-04-08T18:21:55.859Z,100812.23
2023-04-08T18:24:24.510Z,100812.15
2023-04-08T18:27:03.561Z,100814.98
2023-04-08T18:29:33.576Z,100811.08
2023-04-08T18:32:02.103Z,100813.34
2023-04-08T18:34:32.264Z,100814.87
2023-04-08T18:37:05.516Z,100817.25
2023-04-08T18:39:34.317Z,100816.95
2023-04-08T18:42:04.002Z,100816.84
2023-04-08T18:44:33.416Z,100816.23
2023-04-08T18:47:02.670Z,100820.61
2023-04-08T18:49:34.161Z,100819.70
2023-04-08T18:52:03.688Z,100819.88
2023-04-08T18:54:32.881Z,100821.24
2023-04-08T18:57:03.134Z,100820.16
2023-04-08T18:59:32.980Z,100811.65
2023-04-08T19:02:01.830Z,100810.52
2023-04-08T19:04:31.247Z,100813.12
2023-04-08T19:06:59.855Z,100811.52
2023-04-08T19:09:28.478Z,100809.76
2023-04-08T19:11:57.692Z,100810.80
2023-04-08T19:14:26.714Z,100811.22
2023-04-08T19:16:56.999Z,100809.70
2023-04-08T19:19:26.358Z,100810.35
2023-04-08T19:21:55.468Z,100809.25
2023-04-08T19:24:26.720Z,100807.86
2023-04-08T19:26:55.501Z,100804.33
2023-04-08T19:29:33.870Z,100807.55
2023-04-08T19:32:04.395Z,100804.84
2023-04-08T19:34:36.585Z,100807.36
2023-04-08T19:37:06.710Z,100801.59
2023-04-08T19:39:35.318Z,100805.49
2023-04-08T19:42:04.468Z,100810.30
2023-04-08T19:44:33.368Z,100806.37
2023-04-08T19:47:01.946Z,100802.67
2023-04-08T19:49:31.653Z,100802.23
2023-04-08T19:52:00.052Z,100799.90
2023-04-08T19:54:30.378Z,100801.38
2023-04-08T19:56:59.487Z,100800.80
2023-04-08T19:59:28.047Z,100796.63
2023-04-08T20:01:56.915Z,100798.20
2023-04-08T20:04:25.778Z,100795.02
2023-04-08T20:06:54.301Z,100794.60
2023-04-08T20:09:23.133Z,100795.09
2023-04-08T20:11:51.634Z,100793.42
2023-04-08T20:14:20.217Z,100792.45
2023-04-08T20:16:48.801Z,100793.46
2023-04-08T20:19:18.019Z,100792.84
2023-04-08T20:21:49.105Z,100785.23
2023-04-08T20:24:18.052Z,100785.58
2023-04-08T20:26:46.694Z,100784.64
2023-04-08T20:29:15.455Z,100784.86
2023-04-08T20:31:45.083Z,100782.45
2023-04-08T20:34:18.309Z,100781.70
2023-04-08T20:36:48.060Z,100783.95
2023-04-08T20:39:16.572Z,100783.55
2023-04-08T20:41:45.028Z,100785.41
2023-04-08T20:44:13.617Z,100784.38
2023-04-08T20:46:47.893Z,100785.79
2023-04-08T20:49:19.037Z,100786.38
2023-04-08T20:51:47.673Z,100786.53
2023-04-08T20:54:16.876Z,100789.48
2023-04-08T20:56:45.252Z,100789.77
2023-04-08T20:59:17.474Z,100792.17
2023-04-08T21:01:48.435Z,100785.41
2023-04-08T21:04:17.007Z,100784.08
2023-04-08T21:06:45.706Z,100786.58
2023-04-08T21:09:15.234Z,100783.69
2023-04-08T21:11:43.645Z,100785.04
2023-04-08T21:14:17.185Z,100787.29
2023-04-08T21:16:46.793Z,100785.41
2023-04-08T21:19:15.953Z,100789.23
2023-04-08T21:21:50.108Z,100787.59
2023-04-08T21:24:18.816Z,100784.10
2023-04-08T21:26:47.324Z,100782.27
2023-04-08T21:29:17.475Z,100784.44
2023-04-08T21:31:46.057Z,100782.88
2023-04-08T21:34:15.295Z,100786.09
2023-04-08T21:36:46.603Z,100786.42
2023-04-08T21:39:15.151Z,100789.21
2023-04-08T21:41:43.803Z,100790.55
2023-04-08T21:44:12.658Z,100786.47
2023-04-08T21:46:41.329Z,100789.69
2023-04-08T21:49:11.561Z,100788.04
2023-04-08T21:51:41.214Z,100787.74
2023-04-08T21:54:09.778Z,100786.59
2023-04-08T21:56:38.891Z,100788.56
2023-04-08T21:59:07.503Z,100784.36
2023-04-08T22:01:37.588Z,100783.16
2023-04-08T22:04:07.102Z,100781.13
2023-04-08T22:06:35.903Z,100790.80
2023-04-08T22:09:05.445Z,100793.80
2023-04-08T22:11:33.902Z,100791.73
2023-04-08T22:14:02.292Z,100790.29
2023-04-08T22:16:32.430Z,100791.42
2023-04-08T22:19:01.058Z,100794.18
2023-04-08T22:21:29.596Z,100795.57
2023-04-08T22:23:59.085Z,100793.83
2023-04-08T22:26:27.958Z,100796.45
2023-04-08T22:29:00.462Z,100793.78
2023-04-08T22:31:29.884Z,100789.16
2023-04-08T22:34:00.292Z,100791.91
2023-04-08T22:36:28.859Z,100790.43
2023-04-08T22:38:58.081Z,100791.67
2023-04-08T22:41:26.794Z,100795.34
2023-04-08T22:43:55.092Z,100795.80
2023-04-08T22:46:24.651Z,100789.77
2023-04-08T22:48:53.685Z,100791.09
2023-04-08T22:51:23.106Z,100791.72
2023-04-08T22:53:51.501Z,100790.95
2023-04-08T22:56:19.868Z,100792.54
2023-04-08T22:58:50.426Z,100785.72
2023-04-08T23:01:21.460Z,100785.20
2023-04-08T23:03:50.814Z,100788.67
2023-04-08T23:06:19.991Z,100785.91
2023-04-08T23:08:51.788Z,100786.42
2023-04-08T23:11:20.380Z,100786.55
2023-04-08T23:13:56.489Z,100778.42
2023-04-08T23:16:25.279Z,100774.48
2023-04-08T23:18:54.416Z,100775.73
2023-04-08T23:21:27.324Z,100774.51
2023-04-08T23:23:56.188Z,100775.76
2023-04-08T23:26:25.635Z,100774.98
2023-04-08T23:28:55.793Z,100777.17
2023-04-08T23:31:24.499Z,100776.47
2023-04-08T23:33:53.687Z,100776.21
2023-04-08T23:36:23.333Z,100778.41
2023-04-08T23:38:52.951Z,100779.09
2023-04-08T23:41:21.501Z,100776.73
2023-04-08T23:43:54.282Z,100776.83
2023-04-08T23:46:22.945Z,100778.57
2023-04-08T23:48:56.414Z,100777.10
2023-04-08T23:51:26.879Z,100772.96
2023-04-08T23:53:56.581Z,100771.05
2023-04-08T23:56:25.199Z,100775.15
2023-04-08T23:58:53.827Z,100774.27
